sensor_id;sensor_type;location;lat;lon;timestamp;P1;durP1;ratioP1;P2;durP2;ratioP2
64619;SDS011;51029;51.058;13.826;2022-08-30T00:01:31;7.83;;;5.77;;
64619;SDS011;51029;51.058;13.826;2022-08-30T00:03:58;8.10;;;5.83;;
64619;SDS011;51029;51.058;13.826;2022-08-30T00:06:25;7.83;;;5.60;;
64619;SDS011;51029;51.058;13.826;2022-08-30T00:08:52;10.00;;;5.73;;
64619;SDS011;51029;51.058;13.826;2022-08-30T00:11:20;8.20;;;6.00;;
64619;SDS011;51029;51.058;13.826;2022-08-30T00:13:47;10.93;;;5.60;;
64619;SDS011;51029;51.058;13.826;2022-08-30T00:16:14;6.53;;;5.57;;
64619;SDS011;51029;51.058;13.826;2022-08-30T00:18:41;8.80;;;5.83;;
64619;SDS011;51029;51.058;13.826;2022-08-30T00:21:08;6.27;;;5.67;;
64619;SDS011;51029;51.058;13.826;2022-08-30T00:23:34;5.97;;;5.37;;
64619;SDS011;51029;51.058;13.826;2022-08-30T00:26:00;6.33;;;5.13;;
64619;SDS011;51029;51.058;13.826;2022-08-30T00:28:27;5.90;;;5.30;;
64619;SDS011;51029;51.058;13.826;2022-08-30T00:30:54;7.17;;;5.30;;
64619;SDS011;51029;51.058;13.826;2022-08-30T00:33:20;8.07;;;5.73;;
64619;SDS011;51029;51.058;13.826;2022-08-30T00:35:46;7.47;;;5.53;;
64619;SDS011;51029;51.058;13.826;2022-08-30T00:38:12;6.37;;;5.70;;
64619;SDS011;51029;51.058;13.826;2022-08-30T00:40:40;8.20;;;5.40;;
64619;SDS011;51029;51.058;13.826;2022-08-30T00:43:08;6.20;;;5.53;;
64619;SDS011;51029;51.058;13.826;2022-08-30T00:45:35;6.30;;;5.73;;
64619;SDS011;51029;51.058;13.826;2022-08-30T00:48:02;9.33;;;5.40;;
64619;SDS011;51029;51.058;13.826;2022-08-30T00:50:30;5.77;;;5.27;;
64619;SDS011;51029;51.058;13.826;2022-08-30T00:52:57;6.57;;;5.33;;
64619;SDS011;51029;51.058;13.826;2022-08-30T00:55:23;8.27;;;5.70;;
64619;SDS011;51029;51.058;13.826;2022-08-30T00:57:50;7.23;;;5.60;;
64619;SDS011;51029;51.058;13.826;2022-08-30T01:00:16;7.47;;;5.23;;
64619;SDS011;51029;51.058;13.826;2022-08-30T01:02:42;6.03;;;5.47;;
64619;SDS011;51029;51.058;13.826;2022-08-30T01:05:09;6.23;;;5.13;;
64619;SDS011;51029;51.058;13.826;2022-08-30T01:07:37;7.63;;;5.37;;
64619;SDS011;51029;51.058;13.826;2022-08-30T01:10:03;9.17;;;5.73;;
64619;SDS011;51029;51.058;13.826;2022-08-30T01:12:29;6.43;;;5.17;;
64619;SDS011;51029;51.058;13.826;2022-08-30T01:14:56;7.77;;;5.10;;
64619;SDS011;51029;51.058;13.826;2022-08-30T01:17:22;6.90;;;5.47;;
64619;SDS011;51029;51.058;13.826;2022-08-30T01:19:51;9.20;;;5.10;;
64619;SDS011;51029;51.058;13.826;2022-08-30T01:24:51;8.90;;;5.80;;
64619;SDS011;51029;51.058;13.826;2022-08-30T01:27:18;7.77;;;5.30;;
64619;SDS011;51029;51.058;13.826;2022-08-30T01:29:44;6.87;;;5.47;;
64619;SDS011;51029;51.058;13.826;2022-08-30T01:32:15;7.03;;;5.37;;
64619;SDS011;51029;51.058;13.826;2022-08-30T01:34:42;9.07;;;5.47;;
64619;SDS011;51029;51.058;13.826;2022-08-30T01:37:08;5.90;;;5.30;;
64619;SDS011;51029;51.058;13.826;2022-08-30T01:39:34;9.43;;;5.40;;
64619;SDS011;51029;51.058;13.826;2022-08-30T01:42:00;6.30;;;5.40;;
64619;SDS011;51029;51.058;13.826;2022-08-30T01:44:26;5.80;;;5.20;;
64619;SDS011;51029;51.058;13.826;2022-08-30T01:46:52;6.77;;;5.50;;
64619;SDS011;51029;51.058;13.826;2022-08-30T01:49:19;8.13;;;6.07;;
64619;SDS011;51029;51.058;13.826;2022-08-30T01:51:45;6.10;;;5.20;;
64619;SDS011;51029;51.058;13.826;2022-08-30T01:54:11;7.20;;;5.27;;
64619;SDS011;51029;51.058;13.826;2022-08-30T01:56:37;6.47;;;5.30;;
64619;SDS011;51029;51.058;13.826;2022-08-30T01:59:03;8.77;;;5.17;;
64619;SDS011;51029;51.058;13.826;2022-08-30T02:01:30;7.73;;;5.30;;
64619;SDS011;51029;51.058;13.826;2022-08-30T02:03:56;6.00;;;5.40;;
64619;SDS011;51029;51.058;13.826;2022-08-30T02:06:22;8.50;;;5.40;;
64619;SDS011;51029;51.058;13.826;2022-08-30T02:08:48;6.70;;;6.00;;
64619;SDS011;51029;51.058;13.826;2022-08-30T02:11:15;5.80;;;5.20;;
64619;SDS011;51029;51.058;13.826;2022-08-30T02:13:41;6.87;;;5.93;;
64619;SDS011;51029;51.058;13.826;2022-08-30T02:16:09;6.63;;;5.37;;
64619;SDS011;51029;51.058;13.826;2022-08-30T02:18:35;9.30;;;5.67;;
64619;SDS011;51029;51.058;13.826;2022-08-30T02:21:03;8.87;;;5.43;;
64619;SDS011;51029;51.058;13.826;2022-08-30T02:23:29;7.70;;;5.50;;
64619;SDS011;51029;51.058;13.826;2022-08-30T02:25:55;8.57;;;5.43;;
64619;SDS011;51029;51.058;13.826;2022-08-30T02:28:21;6.27;;;5.50;;
64619;SDS011;51029;51.058;13.826;2022-08-30T02:30:47;6.20;;;5.30;;
64619;SDS011;51029;51.058;13.826;2022-08-30T02:33:13;7.17;;;5.20;;
64619;SDS011;51029;51.058;13.826;2022-08-30T02:35:39;7.83;;;5.50;;
64619;SDS011;51029;51.058;13.826;2022-08-30T02:38:06;6.73;;;5.07;;
64619;SDS011;51029;51.058;13.826;2022-08-30T02:40:32;8.10;;;5.50;;
64619;SDS011;51029;51.058;13.826;2022-08-30T02:42:58;6.67;;;5.00;;
64619;SDS011;51029;51.058;13.826;2022-08-30T02:45:24;7.43;;;5.63;;
64619;SDS011;51029;51.058;13.826;2022-08-30T02:47:50;7.83;;;5.60;;
64619;SDS011;51029;51.058;13.826;2022-08-30T02:50:16;7.13;;;5.90;;
64619;SDS011;51029;51.058;13.826;2022-08-30T02:52:42;6.53;;;5.70;;
64619;SDS011;51029;51.058;13.826;2022-08-30T02:55:09;8.80;;;5.57;;
64619;SDS011;51029;51.058;13.826;2022-08-30T02:57:35;7.77;;;5.33;;
64619;SDS011;51029;51.058;13.826;2022-08-30T03:00:03;7.03;;;6.00;;
64619;SDS011;51029;51.058;13.826;2022-08-30T03:02:30;7.60;;;5.60;;
64619;SDS011;51029;51.058;13.826;2022-08-30T03:04:55;5.90;;;5.23;;
64619;SDS011;51029;51.058;13.826;2022-08-30T03:07:21;7.83;;;4.93;;
64619;SDS011;51029;51.058;13.826;2022-08-30T03:09:47;5.87;;;5.07;;
64619;SDS011;51029;51.058;13.826;2022-08-30T03:12:13;7.90;;;5.40;;
64619;SDS011;51029;51.058;13.826;2022-08-30T03:14:39;6.83;;;5.33;;
64619;SDS011;51029;51.058;13.826;2022-08-30T03:17:06;7.97;;;5.63;;
64619;SDS011;51029;51.058;13.826;2022-08-30T03:19:32;7.13;;;5.23;;
64619;SDS011;51029;51.058;13.826;2022-08-30T03:22:00;6.33;;;4.93;;
64619;SDS011;51029;51.058;13.826;2022-08-30T03:24:26;7.83;;;5.23;;
64619;SDS011;51029;51.058;13.826;2022-08-30T03:26:51;6.70;;;5.10;;
64619;SDS011;51029;51.058;13.826;2022-08-30T03:29:17;11.37;;;5.50;;
64619;SDS011;51029;51.058;13.826;2022-08-30T03:31:43;6.23;;;5.37;;
64619;SDS011;51029;51.058;13.826;2022-08-30T03:34:09;8.90;;;5.47;;
64619;SDS011;51029;51.058;13.826;2022-08-30T03:36:36;8.03;;;5.37;;
64619;SDS011;51029;51.058;13.826;2022-08-30T03:39:03;8.00;;;5.63;;
64619;SDS011;51029;51.058;13.826;2022-08-30T03:41:29;7.30;;;5.30;;
64619;SDS011;51029;51.058;13.826;2022-08-30T03:43:56;6.37;;;4.93;;
64619;SDS011;51029;51.058;13.826;2022-08-30T03:46:22;7.97;;;5.40;;
64619;SDS011;51029;51.058;13.826;2022-08-30T03:48:48;6.43;;;5.27;;
64619;SDS011;51029;51.058;13.826;2022-08-30T03:51:14;6.70;;;5.00;;
64619;SDS011;51029;51.058;13.826;2022-08-30T03:53:40;6.03;;;5.43;;
64619;SDS011;51029;51.058;13.826;2022-08-30T03:56:06;7.87;;;5.20;;
64619;SDS011;51029;51.058;13.826;2022-08-30T03:58:32;7.77;;;5.40;;
64619;SDS011;51029;51.058;13.826;2022-08-30T04:00:58;5.73;;;5.13;;
64619;SDS011;51029;51.058;13.826;2022-08-30T04:03:24;8.57;;;5.70;;
64619;SDS011;51029;51.058;13.826;2022-08-30T04:05:53;12.13;;;9.43;;
64619;SDS011;51029;51.058;13.826;2022-08-30T04:08:20;31.73;;;20.20;;
64619;SDS011;51029;51.058;13.826;2022-08-30T04:10:47;22.07;;;14.90;;
64619;SDS011;51029;51.058;13.826;2022-08-30T04:13:14;13.63;;;9.73;;
64619;SDS011;51029;51.058;13.826;2022-08-30T04:15:40;18.20;;;12.10;;
64619;SDS011;51029;51.058;13.826;2022-08-30T04:18:06;12.57;;;9.00;;
64619;SDS011;51029;51.058;13.826;2022-08-30T04:20:32;10.53;;;7.57;;
64619;SDS011;51029;51.058;13.826;2022-08-30T04:22:58;9.83;;;6.87;;
64619;SDS011;51029;51.058;13.826;2022-08-30T04:25:24;9.47;;;7.07;;
64619;SDS011;51029;51.058;13.826;2022-08-30T04:27:50;8.50;;;5.80;;
64619;SDS011;51029;51.058;13.826;2022-08-30T04:30:16;8.97;;;5.70;;
64619;SDS011;51029;51.058;13.826;2022-08-30T04:32:42;10.93;;;5.57;;
64619;SDS011;51029;51.058;13.826;2022-08-30T04:35:08;8.30;;;5.80;;
64619;SDS011;51029;51.058;13.826;2022-08-30T04:37:35;7.80;;;5.57;;
64619;SDS011;51029;51.058;13.826;2022-08-30T04:40:02;9.80;;;5.70;;
64619;SDS011;51029;51.058;13.826;2022-08-30T04:42:32;8.70;;;6.20;;
64619;SDS011;51029;51.058;13.826;2022-08-30T04:45:00;10.93;;;5.90;;
64619;SDS011;51029;51.058;13.826;2022-08-30T04:47:27;8.10;;;5.73;;
64619;SDS011;51029;51.058;13.826;2022-08-30T04:49:53;7.40;;;5.57;;
64619;SDS011;51029;51.058;13.826;2022-08-30T04:52:19;9.63;;;5.60;;
64619;SDS011;51029;51.058;13.826;2022-08-30T04:54:44;8.73;;;5.53;;
64619;SDS011;51029;51.058;13.826;2022-08-30T04:57:10;7.90;;;5.80;;
64619;SDS011;51029;51.058;13.826;2022-08-30T04:59:37;8.50;;;5.57;;
64619;SDS011;51029;51.058;13.826;2022-08-30T05:02:03;7.63;;;5.67;;
64619;SDS011;51029;51.058;13.826;2022-08-30T05:04:29;9.80;;;5.80;;
64619;SDS011;51029;51.058;13.826;2022-08-30T05:06:55;7.97;;;5.80;;
64619;SDS011;51029;51.058;13.826;2022-08-30T05:09:21;8.47;;;5.53;;
64619;SDS011;51029;51.058;13.826;2022-08-30T05:11:47;8.57;;;5.70;;
64619;SDS011;51029;51.058;13.826;2022-08-30T05:14:13;6.53;;;5.73;;
64619;SDS011;51029;51.058;13.826;2022-08-30T05:16:39;8.00;;;5.87;;
64619;SDS011;51029;51.058;13.826;2022-08-30T05:19:05;11.20;;;6.30;;
64619;SDS011;51029;51.058;13.826;2022-08-30T05:21:32;8.20;;;5.83;;
64619;SDS011;51029;51.058;13.826;2022-08-30T05:23:59;8.57;;;5.60;;
64619;SDS011;51029;51.058;13.826;2022-08-30T05:26:26;8.77;;;5.63;;
64619;SDS011;51029;51.058;13.826;2022-08-30T05:28:53;7.87;;;5.83;;
64619;SDS011;51029;51.058;13.826;2022-08-30T05:31:20;7.77;;;5.60;;
64619;SDS011;51029;51.058;13.826;2022-08-30T05:33:47;11.13;;;6.43;;
64619;SDS011;51029;51.058;13.826;2022-08-30T05:36:14;9.37;;;6.07;;
64619;SDS011;51029;51.058;13.826;2022-08-30T05:38:40;8.00;;;6.10;;
64619;SDS011;51029;51.058;13.826;2022-08-30T05:41:06;11.23;;;6.93;;
64619;SDS011;51029;51.058;13.826;2022-08-30T05:43:33;13.43;;;6.73;;
64619;SDS011;51029;51.058;13.826;2022-08-30T05:46:02;9.90;;;8.10;;
64619;SDS011;51029;51.058;13.826;2022-08-30T05:48:29;9.07;;;6.23;;
64619;SDS011;51029;51.058;13.826;2022-08-30T05:51:06;11.20;;;6.17;;
64619;SDS011;51029;51.058;13.826;2022-08-30T05:53:32;27.63;;;8.57;;
64619;SDS011;51029;51.058;13.826;2022-08-30T05:55:59;23.47;;;7.83;;
64619;SDS011;51029;51.058;13.826;2022-08-30T05:58:25;21.90;;;7.47;;
64619;SDS011;51029;51.058;13.826;2022-08-30T06:00:51;19.27;;;7.40;;
64619;SDS011;51029;51.058;13.826;2022-08-30T06:03:17;28.87;;;9.03;;
64619;SDS011;51029;51.058;13.826;2022-08-30T06:05:43;39.63;;;10.17;;
64619;SDS011;51029;51.058;13.826;2022-08-30T06:08:09;19.33;;;7.67;;
64619;SDS011;51029;51.058;13.826;2022-08-30T06:10:35;9.70;;;6.93;;
64619;SDS011;51029;51.058;13.826;2022-08-30T06:13:01;9.50;;;7.20;;
64619;SDS011;51029;51.058;13.826;2022-08-30T06:15:27;8.40;;;7.00;;
64619;SDS011;51029;51.058;13.826;2022-08-30T06:17:53;13.00;;;7.47;;
64619;SDS011;51029;51.058;13.826;2022-08-30T06:20:19;11.17;;;7.47;;
64619;SDS011;51029;51.058;13.826;2022-08-30T06:22:45;9.57;;;7.43;;
64619;SDS011;51029;51.058;13.826;2022-08-30T06:25:11;8.50;;;6.83;;
64619;SDS011;51029;51.058;13.826;2022-08-30T06:27:37;8.43;;;6.70;;
64619;SDS011;51029;51.058;13.826;2022-08-30T06:30:04;10.93;;;7.33;;
64619;SDS011;51029;51.058;13.826;2022-08-30T06:32:32;13.73;;;7.33;;
64619;SDS011;51029;51.058;13.826;2022-08-30T06:34:58;17.47;;;8.57;;
64619;SDS011;51029;51.058;13.826;2022-08-30T06:37:24;15.00;;;7.00;;
64619;SDS011;51029;51.058;13.826;2022-08-30T06:39:51;8.53;;;6.70;;
64619;SDS011;51029;51.058;13.826;2022-08-30T06:42:17;11.90;;;6.40;;
64619;SDS011;51029;51.058;13.826;2022-08-30T06:44:43;10.67;;;7.00;;
64619;SDS011;51029;51.058;13.826;2022-08-30T06:47:09;9.80;;;6.63;;
64619;SDS011;51029;51.058;13.826;2022-08-30T06:49:35;8.57;;;6.50;;
64619;SDS011;51029;51.058;13.826;2022-08-30T06:52:01;13.83;;;6.70;;
64619;SDS011;51029;51.058;13.826;2022-08-30T06:54:27;10.13;;;5.97;;
64619;SDS011;51029;51.058;13.826;2022-08-30T06:56:54;6.67;;;6.03;;
64619;SDS011;51029;51.058;13.826;2022-08-30T06:59:20;10.07;;;6.23;;
64619;SDS011;51029;51.058;13.826;2022-08-30T07:01:45;6.97;;;6.23;;
64619;SDS011;51029;51.058;13.826;2022-08-30T07:04:12;9.27;;;6.50;;
64619;SDS011;51029;51.058;13.826;2022-08-30T07:06:39;9.60;;;6.40;;
64619;SDS011;51029;51.058;13.826;2022-08-30T07:09:05;7.27;;;5.70;;
64619;SDS011;51029;51.058;13.826;2022-08-30T07:11:32;7.33;;;6.10;;
64619;SDS011;51029;51.058;13.826;2022-08-30T07:13:59;9.53;;;5.97;;
64619;SDS011;51029;51.058;13.826;2022-08-30T07:16:26;7.60;;;5.80;;
64619;SDS011;51029;51.058;13.826;2022-08-30T07:18:52;7.07;;;5.53;;
64619;SDS011;51029;51.058;13.826;2022-08-30T07:23:48;8.37;;;6.10;;
64619;SDS011;51029;51.058;13.826;2022-08-30T07:26:15;7.13;;;5.60;;
64619;SDS011;51029;51.058;13.826;2022-08-30T07:28:42;7.20;;;5.40;;
64619;SDS011;51029;51.058;13.826;2022-08-30T07:31:09;6.43;;;5.53;;
64619;SDS011;51029;51.058;13.826;2022-08-30T07:33:35;8.27;;;5.70;;
64619;SDS011;51029;51.058;13.826;2022-08-30T07:36:01;7.07;;;5.20;;
64619;SDS011;51029;51.058;13.826;2022-08-30T07:38:29;7.60;;;5.73;;
64619;SDS011;51029;51.058;13.826;2022-08-30T07:40:55;5.90;;;5.30;;
64619;SDS011;51029;51.058;13.826;2022-08-30T07:43:25;6.27;;;5.33;;
64619;SDS011;51029;51.058;13.826;2022-08-30T07:45:51;7.30;;;5.30;;
64619;SDS011;51029;51.058;13.826;2022-08-30T07:48:16;6.30;;;5.30;;
64619;SDS011;51029;51.058;13.826;2022-08-30T07:50:44;8.37;;;5.70;;
64619;SDS011;51029;51.058;13.826;2022-08-30T07:53:10;8.27;;;5.47;;
64619;SDS011;51029;51.058;13.826;2022-08-30T07:55:36;7.43;;;5.90;;
64619;SDS011;51029;51.058;13.826;2022-08-30T07:58:02;6.50;;;5.60;;
64619;SDS011;51029;51.058;13.826;2022-08-30T08:00:28;7.27;;;5.53;;
64619;SDS011;51029;51.058;13.826;2022-08-30T08:02:54;7.07;;;5.50;;
64619;SDS011;51029;51.058;13.826;2022-08-30T08:05:20;6.47;;;5.17;;
64619;SDS011;51029;51.058;13.826;2022-08-30T08:07:46;5.93;;;5.33;;
64619;SDS011;51029;51.058;13.826;2022-08-30T08:10:12;6.33;;;5.13;;
64619;SDS011;51029;51.058;13.826;2022-08-30T08:12:38;6.23;;;5.10;;
64619;SDS011;51029;51.058;13.826;2022-08-30T08:15:05;5.70;;;5.00;;
64619;SDS011;51029;51.058;13.826;2022-08-30T08:17:31;5.47;;;4.97;;
64619;SDS011;51029;51.058;13.826;2022-08-30T08:19:57;8.70;;;5.27;;
64619;SDS011;51029;51.058;13.826;2022-08-30T08:22:23;6.23;;;5.33;;
64619;SDS011;51029;51.058;13.826;2022-08-30T08:24:49;9.13;;;5.20;;
64619;SDS011;51029;51.058;13.826;2022-08-30T08:27:15;9.40;;;5.10;;
64619;SDS011;51029;51.058;13.826;2022-08-30T08:29:41;6.73;;;5.07;;
64619;SDS011;51029;51.058;13.826;2022-08-30T08:32:07;6.97;;;5.00;;
64619;SDS011;51029;51.058;13.826;2022-08-30T08:34:34;8.70;;;5.13;;
64619;SDS011;51029;51.058;13.826;2022-08-30T08:37:00;5.17;;;4.47;;
64619;SDS011;51029;51.058;13.826;2022-08-30T08:39:26;7.57;;;4.97;;
64619;SDS011;51029;51.058;13.826;2022-08-30T08:41:54;6.60;;;4.87;;
64619;SDS011;51029;51.058;13.826;2022-08-30T08:44:30;6.17;;;5.20;;
64619;SDS011;51029;51.058;13.826;2022-08-30T08:49:30;4.97;;;4.43;;
64619;SDS011;51029;51.058;13.826;2022-08-30T08:51:56;5.90;;;5.00;;
64619;SDS011;51029;51.058;13.826;2022-08-30T08:54:43;5.37;;;4.70;;
64619;SDS011;51029;51.058;13.826;2022-08-30T08:57:11;9.53;;;5.57;;
64619;SDS011;51029;51.058;13.826;2022-08-30T08:59:37;7.03;;;4.77;;
64619;SDS011;51029;51.058;13.826;2022-08-30T09:02:12;5.50;;;4.97;;
64619;SDS011;51029;51.058;13.826;2022-08-30T09:04:43;5.37;;;4.10;;
64619;SDS011;51029;51.058;13.826;2022-08-30T09:07:22;7.33;;;4.27;;
64619;SDS011;51029;51.058;13.826;2022-08-30T09:09:49;5.63;;;4.30;;
64619;SDS011;51029;51.058;13.826;2022-08-30T09:12:15;6.40;;;4.50;;
64619;SDS011;51029;51.058;13.826;2022-08-30T09:14:45;5.83;;;4.27;;
64619;SDS011;51029;51.058;13.826;2022-08-30T09:17:13;5.63;;;4.33;;
64619;SDS011;51029;51.058;13.826;2022-08-30T09:19:43;6.93;;;4.20;;
64619;SDS011;51029;51.058;13.826;2022-08-30T09:24:45;4.63;;;4.00;;
64619;SDS011;51029;51.058;13.826;2022-08-30T09:27:12;5.40;;;4.07;;
64619;SDS011;51029;51.058;13.826;2022-08-30T09:29:47;7.13;;;3.90;;
64619;SDS011;51029;51.058;13.826;2022-08-30T09:32:21;4.53;;;3.90;;
64619;SDS011;51029;51.058;13.826;2022-08-30T09:34:48;5.90;;;4.00;;
64619;SDS011;51029;51.058;13.826;2022-08-30T09:37:25;6.27;;;4.40;;
64619;SDS011;51029;51.058;13.826;2022-08-30T09:39:52;7.67;;;4.10;;
64619;SDS011;51029;51.058;13.826;2022-08-30T09:42:22;6.37;;;4.07;;
64619;SDS011;51029;51.058;13.826;2022-08-30T09:44:49;4.20;;;3.57;;
64619;SDS011;51029;51.058;13.826;2022-08-30T09:47:20;5.23;;;3.57;;
64619;SDS011;51029;51.058;13.826;2022-08-30T09:49:46;5.43;;;3.60;;
64619;SDS011;51029;51.058;13.826;2022-08-30T09:52:33;4.10;;;3.47;;
64619;SDS011;51029;51.058;13.826;2022-08-30T10:00:27;6.13;;;3.97;;
64619;SDS011;51029;51.058;13.826;2022-08-30T10:10:51;3.83;;;2.70;;
64619;SDS011;51029;51.058;13.826;2022-08-30T10:13:31;3.30;;;2.85;;
64619;SDS011;51029;51.058;13.826;2022-08-30T10:19:09;4.75;;;2.60;;
64619;SDS011;51029;51.058;13.826;2022-08-30T10:21:45;4.20;;;2.40;;
64619;SDS011;51029;51.058;13.826;2022-08-30T10:24:16;2.67;;;1.92;;
64619;SDS011;51029;51.058;13.826;2022-08-30T10:26:51;2.00;;;1.70;;
64619;SDS011;51029;51.058;13.826;2022-08-30T10:29:21;2.53;;;2.33;;
64619;SDS011;51029;51.058;13.826;2022-08-30T10:31:50;3.50;;;2.30;;
64619;SDS011;51029;51.058;13.826;2022-08-30T10:34:21;2.95;;;2.40;;
64619;SDS011;51029;51.058;13.826;2022-08-30T10:36:51;3.67;;;2.75;;
64619;SDS011;51029;51.058;13.826;2022-08-30T10:39:21;3.08;;;2.17;;
64619;SDS011;51029;51.058;13.826;2022-08-30T10:41:49;2.97;;;2.40;;
64619;SDS011;51029;51.058;13.826;2022-08-30T10:44:22;4.60;;;2.60;;
64619;SDS011;51029;51.058;13.826;2022-08-30T10:49:24;4.10;;;2.25;;
64619;SDS011;51029;51.058;13.826;2022-08-30T10:51:57;3.97;;;2.67;;
64619;SDS011;51029;51.058;13.826;2022-08-30T10:54:29;4.78;;;2.50;;
64619;SDS011;51029;51.058;13.826;2022-08-30T10:56:57;4.57;;;2.83;;
64619;SDS011;51029;51.058;13.826;2022-08-30T10:59:24;3.83;;;2.50;;
64619;SDS011;51029;51.058;13.826;2022-08-30T11:04:30;3.00;;;2.50;;
64619;SDS011;51029;51.058;13.826;2022-08-30T11:14:52;3.57;;;2.70;;
64619;SDS011;51029;51.058;13.826;2022-08-30T11:17:26;4.87;;;2.67;;
64619;SDS011;51029;51.058;13.826;2022-08-30T11:19:54;3.93;;;2.80;;
64619;SDS011;51029;51.058;13.826;2022-08-30T11:22:26;2.87;;;2.57;;
64619;SDS011;51029;51.058;13.826;2022-08-30T11:25:00;3.90;;;2.47;;
64619;SDS011;51029;51.058;13.826;2022-08-30T11:35:38;3.03;;;2.25;;
64619;SDS011;51029;51.058;13.826;2022-08-30T11:38:16;5.30;;;4.75;;
64619;SDS011;51029;51.058;13.826;2022-08-30T11:40:44;3.28;;;2.10;;
64619;SDS011;51029;51.058;13.826;2022-08-30T12:01:51;2.58;;;2.30;;
64619;SDS011;51029;51.058;13.826;2022-08-30T12:12:02;4.18;;;2.80;;
64619;SDS011;51029;51.058;13.826;2022-08-30T12:14:36;3.78;;;2.30;;
64619;SDS011;51029;51.058;13.826;2022-08-30T12:17:09;4.10;;;2.30;;
64619;SDS011;51029;51.058;13.826;2022-08-30T12:19:55;2.65;;;2.30;;
64619;SDS011;51029;51.058;13.826;2022-08-30T12:22:21;6.63;;;3.30;;
64619;SDS011;51029;51.058;13.826;2022-08-30T12:24:48;2.90;;;2.42;;
64619;SDS011;51029;51.058;13.826;2022-08-30T12:27:20;3.00;;;2.40;;
64619;SDS011;51029;51.058;13.826;2022-08-30T12:29:50;4.38;;;3.10;;
64619;SDS011;51029;51.058;13.826;2022-08-30T12:32:17;7.20;;;4.03;;
64619;SDS011;51029;51.058;13.826;2022-08-30T12:39:45;5.13;;;2.88;;
64619;SDS011;51029;51.058;13.826;2022-08-30T12:42:21;4.22;;;2.90;;
64619;SDS011;51029;51.058;13.826;2022-08-30T12:44:48;4.55;;;2.90;;
64619;SDS011;51029;51.058;13.826;2022-08-30T12:47:16;7.80;;;3.10;;
64619;SDS011;51029;51.058;13.826;2022-08-30T12:49:43;4.15;;;3.00;;
64619;SDS011;51029;51.058;13.826;2022-08-30T12:52:18;5.45;;;3.13;;
64619;SDS011;51029;51.058;13.826;2022-08-30T12:54:46;6.68;;;3.00;;
64619;SDS011;51029;51.058;13.826;2022-08-30T12:57:34;6.75;;;6.05;;
64619;SDS011;51029;51.058;13.826;2022-08-30T12:59:57;3.63;;;3.33;;
64619;SDS011;51029;51.058;13.826;2022-08-30T13:02:25;4.18;;;2.80;;
64619;SDS011;51029;51.058;13.826;2022-08-30T13:04:52;5.05;;;3.10;;
64619;SDS011;51029;51.058;13.826;2022-08-30T13:09:50;3.33;;;2.87;;
64619;SDS011;51029;51.058;13.826;2022-08-30T13:12:24;4.43;;;3.00;;
64619;SDS011;51029;51.058;13.826;2022-08-30T13:14:50;4.00;;;2.87;;
64619;SDS011;51029;51.058;13.826;2022-08-30T13:17:26;4.60;;;2.70;;
64619;SDS011;51029;51.058;13.826;2022-08-30T13:19:57;3.43;;;2.70;;
64619;SDS011;51029;51.058;13.826;2022-08-30T13:22:24;2.83;;;2.53;;
64619;SDS011;51029;51.058;13.826;2022-08-30T13:24:51;4.23;;;2.60;;
64619;SDS011;51029;51.058;13.826;2022-08-30T13:27:17;7.00;;;3.27;;
64619;SDS011;51029;51.058;13.826;2022-08-30T13:29:43;4.10;;;2.60;;
64619;SDS011;51029;51.058;13.826;2022-08-30T13:32:09;2.90;;;2.67;;
64619;SDS011;51029;51.058;13.826;2022-08-30T13:34:35;3.55;;;2.50;;
64619;SDS011;51029;51.058;13.826;2022-08-30T13:37:01;4.03;;;2.15;;
64619;SDS011;51029;51.058;13.826;2022-08-30T13:39:27;4.28;;;2.30;;
64619;SDS011;51029;51.058;13.826;2022-08-30T13:41:54;4.22;;;2.33;;
64619;SDS011;51029;51.058;13.826;2022-08-30T13:44:20;4.13;;;2.70;;
64619;SDS011;51029;51.058;13.826;2022-08-30T13:46:48;4.07;;;2.50;;
64619;SDS011;51029;51.058;13.826;2022-08-30T13:49:18;2.30;;;2.10;;
64619;SDS011;51029;51.058;13.826;2022-08-30T13:51:44;2.53;;;2.10;;
64619;SDS011;51029;51.058;13.826;2022-08-30T13:54:11;2.75;;;2.40;;
64619;SDS011;51029;51.058;13.826;2022-08-30T13:56:37;3.15;;;2.30;;
64619;SDS011;51029;51.058;13.826;2022-08-30T13:59:03;3.90;;;2.53;;
64619;SDS011;51029;51.058;13.826;2022-08-30T14:01:29;3.10;;;2.20;;
64619;SDS011;51029;51.058;13.826;2022-08-30T14:03:55;2.87;;;2.40;;
64619;SDS011;51029;51.058;13.826;2022-08-30T14:06:21;4.00;;;2.40;;
64619;SDS011;51029;51.058;13.826;2022-08-30T14:08:47;4.93;;;2.30;;
64619;SDS011;51029;51.058;13.826;2022-08-30T14:11:14;3.78;;;2.00;;
64619;SDS011;51029;51.058;13.826;2022-08-30T14:13:41;3.53;;;2.28;;
64619;SDS011;51029;51.058;13.826;2022-08-30T14:16:07;2.58;;;1.90;;
64619;SDS011;51029;51.058;13.826;2022-08-30T14:18:33;2.65;;;1.92;;
64619;SDS011;51029;51.058;13.826;2022-08-30T14:21:00;2.50;;;1.90;;
64619;SDS011;51029;51.058;13.826;2022-08-30T14:23:26;2.72;;;1.70;;
64619;SDS011;51029;51.058;13.826;2022-08-30T14:25:52;2.15;;;1.63;;
64619;SDS011;51029;51.058;13.826;2022-08-30T14:28:19;1.95;;;1.58;;
64619;SDS011;51029;51.058;13.826;2022-08-30T14:30:45;3.05;;;1.55;;
64619;SDS011;51029;51.058;13.826;2022-08-30T14:33:11;3.67;;;1.52;;
64619;SDS011;51029;51.058;13.826;2022-08-30T14:35:37;2.25;;;1.75;;
64619;SDS011;51029;51.058;13.826;2022-08-30T14:38:03;2.25;;;1.60;;
64619;SDS011;51029;51.058;13.826;2022-08-30T14:40:29;2.40;;;1.50;;
64619;SDS011;51029;51.058;13.826;2022-08-30T14:42:55;2.63;;;1.45;;
64619;SDS011;51029;51.058;13.826;2022-08-30T14:45:21;2.90;;;1.80;;
64619;SDS011;51029;51.058;13.826;2022-08-30T14:47:47;2.28;;;1.70;;
64619;SDS011;51029;51.058;13.826;2022-08-30T14:50:13;1.95;;;1.55;;
64619;SDS011;51029;51.058;13.826;2022-08-30T14:52:39;3.03;;;2.10;;
64619;SDS011;51029;51.058;13.826;2022-08-30T14:55:06;3.10;;;2.00;;
64619;SDS011;51029;51.058;13.826;2022-08-30T14:57:33;4.18;;;2.03;;
64619;SDS011;51029;51.058;13.826;2022-08-30T14:59:59;3.00;;;1.90;;
64619;SDS011;51029;51.058;13.826;2022-08-30T15:02:25;2.28;;;1.77;;
64619;SDS011;51029;51.058;13.826;2022-08-30T15:04:51;3.53;;;1.80;;
64619;SDS011;51029;51.058;13.826;2022-08-30T15:07:17;6.97;;;4.75;;
64619;SDS011;51029;51.058;13.826;2022-08-30T15:09:43;3.30;;;1.85;;
64619;SDS011;51029;51.058;13.826;2022-08-30T15:12:09;3.72;;;1.90;;
64619;SDS011;51029;51.058;13.826;2022-08-30T15:14:34;3.92;;;2.20;;
64619;SDS011;51029;51.058;13.826;2022-08-30T15:17:00;3.65;;;2.00;;
64619;SDS011;51029;51.058;13.826;2022-08-30T15:19:27;1.90;;;1.70;;
64619;SDS011;51029;51.058;13.826;2022-08-30T15:21:53;8.68;;;7.47;;
64619;SDS011;51029;51.058;13.826;2022-08-30T15:24:20;17.75;;;16.05;;
64619;SDS011;51029;51.058;13.826;2022-08-30T15:26:46;4.10;;;1.70;;
64619;SDS011;51029;51.058;13.826;2022-08-30T15:29:14;2.47;;;1.90;;
64619;SDS011;51029;51.058;13.826;2022-08-30T15:31:40;2.88;;;2.10;;
64619;SDS011;51029;51.058;13.826;2022-08-30T15:34:07;3.13;;;1.95;;
64619;SDS011;51029;51.058;13.826;2022-08-30T15:36:34;2.25;;;1.73;;
64619;SDS011;51029;51.058;13.826;2022-08-30T15:39:00;2.20;;;1.85;;
64619;SDS011;51029;51.058;13.826;2022-08-30T15:41:27;3.35;;;2.13;;
64619;SDS011;51029;51.058;13.826;2022-08-30T15:43:56;2.28;;;1.88;;
64619;SDS011;51029;51.058;13.826;2022-08-30T15:48:49;2.38;;;1.90;;
64619;SDS011;51029;51.058;13.826;2022-08-30T15:51:16;3.25;;;2.00;;
64619;SDS011;51029;51.058;13.826;2022-08-30T15:53:42;3.47;;;2.28;;
64619;SDS011;51029;51.058;13.826;2022-08-30T15:56:08;3.22;;;2.17;;
64619;SDS011;51029;51.058;13.826;2022-08-30T15:58:34;3.72;;;2.30;;